createdAt,value
2023-01-26T00:05:10.921Z,213456.00
2023-01-26T00:11:14.151Z,213448.00
2023-01-26T00:17:17.283Z,213400.00
2023-01-26T00:23:19.639Z,213414.00
2023-01-26T00:29:21.914Z,213366.00
2023-01-26T00:35:24.893Z,213380.00
2023-01-26T00:41:45.695Z,213420.00
2023-01-26T00:47:47.811Z,213380.00
2023-01-26T00:53:50.093Z,213400.00
2023-01-26T00:59:52.221Z,213420.00
2023-01-26T01:05:54.397Z,213400.00
2023-01-26T01:11:56.780Z,213414.00
2023-01-26T01:17:59.199Z,213388.00
2023-01-26T01:24:01.747Z,213420.00
2023-01-26T01:30:08.229Z,213341.00
2023-01-26T01:36:15.542Z,213295.00
2023-01-26T01:42:26.020Z,213315.00
2023-01-26T01:48:30.628Z,213341.00
2023-01-26T01:54:51.086Z,213301.00
2023-01-26T02:00:53.969Z,213241.00
2023-01-26T02:06:59.236Z,213281.00
2023-01-26T02:13:02.823Z,213301.00
2023-01-26T02:19:05.180Z,213341.00
2023-01-26T02:25:40.358Z,213321.00
2023-01-26T02:31:43.669Z,213281.00
2023-01-26T02:37:45.964Z,213327.00
2023-01-26T02:43:48.415Z,213321.00
2023-01-26T02:49:51.302Z,213301.00
2023-01-26T02:55:55.132Z,213287.00
2023-01-26T03:01:58.550Z,213287.00
2023-01-26T03:08:01.463Z,213380.00
2023-01-26T03:14:10.990Z,213406.00
2023-01-26T03:20:32.423Z,213420.00
2023-01-26T03:26:54.020Z,213380.00
2023-01-26T03:32:56.896Z,213388.00
2023-01-26T03:38:59.289Z,213394.00
2023-01-26T03:45:20.058Z,213400.00
2023-01-26T03:51:42.724Z,213380.00
2023-01-26T03:57:45.140Z,213388.00
2023-01-26T04:04:08.185Z,213406.00
2023-01-26T04:10:11.090Z,213448.00
2023-01-26T04:16:32.716Z,213440.00
2023-01-26T04:22:42.631Z,213440.00
2023-01-26T04:28:45.063Z,213420.00
2023-01-26T04:34:47.428Z,213440.00
2023-01-26T04:40:56.785Z,213420.00
2023-01-26T04:46:59.578Z,213448.00
2023-01-26T04:53:03.684Z,213414.00
2023-01-26T04:59:08.545Z,213414.00
2023-01-26T05:05:13.014Z,213414.00
2023-01-26T05:11:15.351Z,213414.00
2023-01-26T05:17:40.792Z,213414.00
2023-01-26T05:24:06.054Z,213400.00
2023-01-26T05:30:23.223Z,213440.00
2023-01-26T05:36:26.835Z,213492.00
2023-01-26T05:42:29.298Z,213512.00
2023-01-26T05:48:42.450Z,213486.00
2023-01-26T05:54:45.431Z,213512.00
2023-01-26T06:00:47.583Z,213512.00
2023-01-26T06:06:59.158Z,213546.00
2023-01-26T06:13:13.510Z,213546.00
2023-01-26T06:19:36.878Z,213538.00
2023-01-26T06:25:42.542Z,213546.00
2023-01-26T06:31:45.194Z,213538.00
2023-01-26T06:37:50.477Z,213538.00
2023-01-26T06:43:53.815Z,213586.00
2023-01-26T06:49:56.372Z,213679.00
2023-01-26T06:55:58.808Z,213667.00
2023-01-26T07:02:21.679Z,213641.00
2023-01-26T07:08:23.940Z,213667.00
2023-01-26T07:14:26.192Z,213641.00
2023-01-26T07:20:28.796Z,213627.00
2023-01-26T07:26:31.163Z,213627.00
2023-01-26T07:32:33.335Z,213608.00
2023-01-26T07:38:35.595Z,213526.00
2023-01-26T07:44:37.893Z,213498.00
2023-01-26T07:50:40.106Z,213546.00
2023-01-26T07:56:42.276Z,213560.00
2023-01-26T08:02:44.830Z,213546.00
2023-01-26T08:08:51.727Z,213614.00
2023-01-26T08:14:53.959Z,213580.00
2023-01-26T08:20:56.311Z,213627.00
2023-01-26T08:26:58.391Z,213620.00
2023-01-26T08:33:00.763Z,213586.00
2023-01-26T08:39:03.125Z,213580.00
2023-01-26T08:45:05.540Z,213627.00
2023-01-26T08:51:08.242Z,213586.00
2023-01-26T08:57:10.398Z,213641.00
2023-01-26T09:03:12.828Z,213659.00
2023-01-26T09:09:14.862Z,213759.00
2023-01-26T09:15:17.187Z,213813.00
2023-01-26T09:21:19.989Z,213853.00
2023-01-26T09:27:22.242Z,213906.00
2023-01-26T09:33:25.822Z,213974.00
2023-01-26T09:39:28.028Z,213954.00
2023-01-26T09:45:39.198Z,213900.00
2023-01-26T09:52:00.357Z,213986.00
2023-01-26T09:58:14.634Z,213974.00
2023-01-26T10:04:34.248Z,213920.00
2023-01-26T10:10:41.966Z,213946.00
2023-01-26T10:16:47.070Z,213954.00
2023-01-26T10:22:53.001Z,213946.00
2023-01-26T10:28:55.482Z,213906.00
2023-01-26T10:34:57.661Z,213867.00
2023-01-26T10:41:05.141Z,213914.00
2023-01-26T10:47:18.214Z,213914.00
2023-01-26T10:53:30.936Z,213940.00
2023-01-26T10:59:41.193Z,214046.00
2023-01-26T11:05:45.189Z,214106.00
2023-01-26T11:12:01.465Z,214038.00
2023-01-26T11:18:43.143Z,214126.00
2023-01-26T11:25:02.231Z,214199.00
2023-01-26T11:31:31.678Z,214247.00
2023-01-26T11:37:39.948Z,214299.00
2023-01-26T11:44:26.031Z,214274.00
2023-01-26T11:50:44.283Z,214299.00
2023-01-26T11:56:51.882Z,214353.00
2023-01-26T12:03:05.120Z,214341.00
2023-01-26T12:09:33.317Z,214321.00
2023-01-26T12:15:38.842Z,214301.00
2023-01-26T12:21:45.593Z,214279.00
2023-01-26T12:28:08.714Z,214274.00
2023-01-26T12:34:13.916Z,214301.00
2023-01-26T12:40:25.192Z,214341.00
2023-01-26T12:46:31.653Z,214321.00
2023-01-26T12:52:49.205Z,214353.00
2023-01-26T12:58:54.164Z,214367.00
2023-01-26T13:04:59.475Z,214293.00
2023-01-26T13:11:09.419Z,214249.00
2023-01-26T13:17:18.040Z,214293.00
2023-01-26T13:23:29.310Z,214279.00
2023-01-26T13:29:33.444Z,214287.00
2023-01-26T13:35:35.958Z,214274.00
2023-01-26T13:41:45.687Z,214321.00
2023-01-26T13:47:51.294Z,214333.00
2023-01-26T13:54:06.780Z,214307.00
2023-01-26T14:00:12.159Z,214307.00
2023-01-26T14:06:23.055Z,214299.00
2023-01-26T14:12:33.856Z,214287.00
2023-01-26T14:18:36.406Z,214247.00
2023-01-26T14:24:41.424Z,214266.00
2023-01-26T14:30:44.318Z,214227.00
2023-01-26T14:36:46.563Z,214213.00
2023-01-26T14:42:53.906Z,214126.00
2023-01-26T14:49:13.059Z,214072.00
2023-01-26T14:55:30.070Z,214086.00
2023-01-26T15:01:33.065Z,214038.00
2023-01-26T15:07:43.446Z,214038.00
2023-01-26T15:13:48.597Z,214052.00
2023-01-26T15:19:53.555Z,214052.00
2023-01-26T15:25:56.376Z,214060.00
2023-01-26T15:31:59.312Z,214052.00
2023-01-26T15:38:13.101Z,214066.00
2023-01-26T15:44:20.122Z,214100.00
2023-01-26T15:50:28.213Z,214159.00
2023-01-26T15:56:31.317Z,214167.00
2023-01-26T16:02:33.472Z,214227.00
2023-01-26T16:08:35.759Z,214287.00
2023-01-26T16:14:37.792Z,214307.00
2023-01-26T16:20:42.180Z,214353.00
2023-01-26T16:26:44.309Z,214387.00
2023-01-26T16:32:49.719Z,214422.00
2023-01-26T16:38:52.122Z,214454.00
2023-01-26T16:44:54.566Z,214482.00
2023-01-26T16:50:56.750Z,214508.00
2023-01-26T16:56:59.011Z,214568.00
2023-01-26T17:03:01.523Z,214616.00
2023-01-26T17:09:04.324Z,214622.00
2023-01-26T17:15:08.031Z,214636.00
2023-01-26T17:21:10.413Z,214628.00
2023-01-26T17:27:12.845Z,214608.00
2023-01-26T17:33:15.067Z,214622.00
2023-01-26T17:39:19.076Z,214608.00
2023-01-26T17:45:21.263Z,214636.00
2023-01-26T17:51:23.822Z,214628.00
2023-01-26T17:57:25.922Z,214642.00
2023-01-26T18:03:28.632Z,214642.00
2023-01-26T18:09:30.837Z,214642.00
2023-01-26T18:15:36.179Z,214642.00
2023-01-26T18:21:38.673Z,214628.00
2023-01-26T18:27:41.169Z,214628.00
2023-01-26T18:33:43.243Z,214628.00
2023-01-26T18:39:45.529Z,214642.00
2023-01-26T18:45:47.824Z,214636.00
2023-01-26T18:51:51.111Z,214622.00
2023-01-26T18:57:55.388Z,214642.00
2023-01-26T19:03:59.152Z,214642.00
2023-01-26T19:10:01.284Z,214676.00
2023-01-26T19:16:03.750Z,214676.00
2023-01-26T19:22:06.333Z,214695.00
2023-01-26T19:28:08.811Z,214709.00
2023-01-26T19:34:13.621Z,214689.00
2023-01-26T19:40:15.998Z,214709.00
2023-01-26T19:46:19.195Z,214703.00
2023-01-26T20:45:01.520Z,214574.00
2023-01-26T20:51:16.528Z,214554.00
2023-01-26T20:57:19.367Z,214568.00
2023-01-26T21:03:21.690Z,214554.00
2023-01-26T21:09:24.106Z,214546.00
2023-01-26T21:15:26.301Z,214527.00
2023-01-26T21:21:28.564Z,214454.00
2023-01-26T21:27:30.652Z,214415.00
2023-01-26T21:33:36.038Z,214422.00
2023-01-26T21:39:38.267Z,214403.00
2023-01-26T21:45:56.477Z,214375.00
2023-01-26T21:52:17.560Z,214367.00
2023-01-26T21:58:38.251Z,214373.00
2023-01-26T22:04:40.677Z,214341.00
2023-01-26T22:10:42.725Z,214333.00
2023-01-26T22:16:45.182Z,214307.00
2023-01-26T22:22:47.292Z,214307.00
2023-01-26T22:28:57.243Z,214274.00
2023-01-26T22:34:59.517Z,214247.00
2023-01-26T22:41:03.283Z,214207.00
2023-01-26T22:47:05.687Z,214179.00
2023-01-26T22:53:08.087Z,214173.00
2023-01-26T22:59:10.303Z,214120.00
2023-01-26T23:05:12.586Z,214046.00
2023-01-26T23:11:18.704Z,213968.00
2023-01-26T23:17:20.983Z,213934.00
2023-01-26T23:23:23.172Z,213887.00
2023-01-26T23:29:25.530Z,213805.00
2023-01-26T23:35:27.564Z,213799.00
2023-01-26T23:41:30.493Z,213727.00
2023-01-26T23:47:32.896Z,213673.00
2023-01-26T23:53:35.876Z,213627.00
2023-01-26T23:59:38.013Z,213627.00
